Time;durP1;ratioP1;P1;durP2;ratioP2;P2;SDS_P1;SDS_P2;PMS_P1;PMS_P2;Temp;Humidity;BMP_temperature;BMP_pressure;BME280_temperature;BME280_humidity;BME280_pressure;Samples;Min_cycle;Max_cycle;Signal;HPM_P1;HPM_P2
2022/09/10 00:00:03;;;;;;;0.70;0.20;;;;;;;15.62;62.24;100345.44;4792802;29;98698;-65
2022/09/10 00:02:31;;;;;;;0.80;0.30;;;;;;;15.62;62.51;100338.09;4800682;28;98002;-64
2022/09/10 00:04:59;;;;;;;3.08;0.30;;;;;;;15.61;62.10;100349.28;4795038;29;98429;-64
2022/09/10 00:07:25;;;;;;;0.80;0.20;;;;;;;15.60;62.41;100342.22;4800010;28;99400;-71
2022/09/10 00:09:51;;;;;;;1.05;0.22;;;;;;;15.57;62.49;100346.38;4799335;29;98600;-64
2022/09/10 00:12:19;;;;;;;1.17;0.30;;;;;;;15.59;62.49;100343.31;4802826;28;98168;-66
2022/09/10 00:14:45;;;;;;;1.55;0.20;;;;;;;15.57;62.46;100340.94;4796716;28;97901;-64
2022/09/10 00:17:12;;;;;;;1.05;0.20;;;;;;;15.56;62.33;100339.31;4794142;28;98520;-64
2022/09/10 00:19:38;;;;;;;1.20;0.20;;;;;;;15.56;62.52;100341.22;4787723;29;99239;-64
2022/09/10 00:22:04;;;;;;;0.65;0.20;;;;;;;15.55;62.32;100342.31;4804793;29;100406;-71
2022/09/10 00:24:32;;;;;;;1.15;0.20;;;;;;;15.54;62.68;100335.28;4832206;28;97944;-64
2022/09/10 00:26:59;;;;;;;0.85;0.17;;;;;;;15.55;62.54;100337.69;4796374;28;97851;-71
2022/09/10 00:29:26;;;;;;;1.05;0.20;;;;;;;15.53;62.46;100339.94;4787439;29;97886;-64
2022/09/10 00:31:53;;;;;;;0.65;0.10;;;;;;;15.52;62.26;100337.50;4815272;29;98447;-64
2022/09/10 00:34:20;;;;;;;0.77;0.20;;;;;;;15.49;62.65;100333.50;4783294;29;98287;-64
2022/09/10 00:36:46;;;;;;;2.67;0.20;;;;;;;15.48;62.61;100340.00;4777838;29;100061;-64
2022/09/10 00:39:15;;;;;;;1.00;0.20;;;;;;;15.46;62.54;100342.25;4779811;29;98241;-64
2022/09/10 00:41:48;;;;;;;0.80;0.20;;;;;;;15.44;62.27;100341.72;4802810;29;98124;-71
2022/09/10 00:44:40;;;;;;;;;;;;;;;15.45;61.78;100346.88;4818666;28;97757;-65
2022/09/10 00:47:37;;;;;;;0.40;0.10;;;;;;;15.37;62.20;100355.72;4816881;28;99946;-64
2022/09/10 00:50:15;;;;;;;0.57;0.20;;;;;;;15.32;62.10;100346.84;4805365;29;98188;-71
2022/09/10 00:52:42;;;;;;;1.23;0.20;;;;;;;15.30;62.32;100351.81;4792568;29;98423;-64
2022/09/10 00:55:09;;;;;;;0.40;0.15;;;;;;;15.25;62.39;100341.84;4809176;28;98012;-64
2022/09/10 00:57:35;;;;;;;0.93;0.20;;;;;;;15.24;62.59;100342.94;4808223;29;99488;-64
2022/09/10 01:00:07;;;;;;;0.77;0.22;;;;;;;15.21;62.62;100346.28;4796824;29;98318;-64
2022/09/10 01:02:33;;;;;;;2.08;0.20;;;;;;;15.17;62.50;100348.78;4810282;28;98137;-65
2022/09/10 01:04:59;;;;;;;0.45;0.10;;;;;;;15.15;62.74;100350.97;4796220;29;98229;-64
2022/09/10 01:07:28;;;;;;;1.10;0.30;;;;;;;15.12;62.65;100348.84;4793140;29;98313;-64
2022/09/10 01:10:02;;;;;;;0.73;0.20;;;;;;;15.09;62.74;100351.34;4805743;29;98231;-64
2022/09/10 01:13:05;;;;;;;1.75;0.20;;;;;;;15.04;62.23;100341.41;4799928;28;98371;-71
2022/09/10 01:16:07;;;;;;;1.05;0.20;;;;;;;14.98;62.39;100346.13;4819933;28;97984;-64
2022/09/10 01:18:53;;;;;;;1.70;0.20;;;;;;;14.92;62.32;100341.91;4816760;28;97942;-71
2022/09/10 01:21:53;;;;;;;0.40;0.10;;;;;;;14.88;62.76;100345.50;4837648;28;98137;-64
2022/09/10 01:25:07;;;;;;;0.85;0.20;;;;;;;14.83;62.37;100346.41;4823456;28;97962;-64
2022/09/10 01:27:49;;;;;;;1.45;0.25;;;;;;;14.80;62.47;100351.63;4844127;28;98557;-72
2022/09/10 01:30:22;;;;;;;1.17;0.25;;;;;;;14.78;62.79;100346.50;4824304;28;97990;-64
2022/09/10 01:33:03;;;;;;;0.40;0.10;;;;;;;14.73;62.81;100346.56;4801848;29;99317;-65
2022/09/10 01:35:48;;;;;;;0.80;0.25;;;;;;;14.67;62.93;100348.59;4816303;28;98860;-64
2022/09/10 01:38:22;;;;;;;1.80;0.20;;;;;;;14.66;62.93;100357.03;4782704;29;98245;-64
2022/09/10 01:40:48;;;;;;;1.95;0.20;;;;;;;14.69;62.91;100362.63;4812780;29;98287;-64
2022/09/10 01:43:15;;;;;;;0.65;0.20;;;;;;;14.70;63.23;100360.75;4798072;29;98406;-64
2022/09/10 01:46:05;;;;;;;0.90;0.30;;;;;;;14.72;63.12;100369.38;4802657;29;103804;-71
2022/09/10 01:49:12;;;;;;;0.60;0.22;;;;;;;14.74;62.91;100361.78;4812620;28;98249;-70
2022/09/10 01:52:24;;;;;;;0.77;0.20;;;;;;;14.76;62.60;100366.88;4791617;29;97874;-64
2022/09/10 01:55:30;;;;;;;0.65;0.20;;;;;;;14.75;62.79;100359.84;4792435;28;99094;-65
2022/09/10 01:58:19;;;;;;;0.95;0.30;;;;;;;14.72;62.82;100364.75;4833846;28;97861;-64
2022/09/10 02:01:01;;;;;;;0.55;0.10;;;;;;;14.74;62.90;100364.50;4802194;28;98266;-64
2022/09/10 02:03:27;;;;;;;0.80;0.22;;;;;;;14.75;63.27;100359.84;4787887;28;108038;-64
2022/09/10 02:05:57;;;;;;;0.82;0.20;;;;;;;14.72;62.82;100353.91;4806696;29;98188;-71
2022/09/10 02:08:29;;;;;;;1.45;0.20;;;;;;;14.73;63.19;100358.22;4796821;29;98104;-64
2022/09/10 02:11:08;;;;;;;0.65;0.20;;;;;;;14.75;63.05;100359.84;4798370;28;98189;-64
2022/09/10 02:13:34;;;;;;;1.83;0.20;;;;;;;14.77;63.68;100361.16;4792715;29;98114;-64
2022/09/10 02:16:02;;;;;;;0.52;0.20;;;;;;;14.76;63.54;100359.56;4796341;29;98263;-70
2022/09/10 02:18:41;;;;;;;0.75;0.15;;;;;;;14.77;63.04;100355.72;4812242;28;98533;-70
2022/09/10 02:21:09;;;;;;;0.70;0.20;;;;;;;14.78;63.18;100351.94;4819118;28;98243;-64
2022/09/10 02:23:56;;;;;;;0.95;0.20;;;;;;;14.80;63.21;100352.44;4812238;28;99546;-66
2022/09/10 02:26:24;;;;;;;2.38;0.30;;;;;;;14.81;63.54;100361.38;4802846;29;98476;-64
2022/09/10 02:28:58;;;;;;;0.93;0.22;;;;;;;14.79;63.24;100360.88;4784590;29;98658;-70
2022/09/10 02:31:24;;;;;;;0.85;0.30;;;;;;;14.77;63.16;100365.78;4770147;29;97919;-64
2022/09/10 02:33:50;;;;;;;1.52;0.40;;;;;;;14.70;63.67;100368.91;4780784;29;97901;-64
2022/09/10 02:36:17;;;;;;;1.45;0.43;;;;;;;14.66;63.31;100367.88;4785779;29;98705;-64
2022/09/10 02:38:44;;;;;;;0.70;0.20;;;;;;;14.60;63.57;100369.84;4786424;29;98077;-70
2022/09/10 02:41:10;;;;;;;1.77;0.25;;;;;;;14.57;63.45;100356.06;4767957;29;98024;-64
2022/09/10 02:43:37;;;;;;;0.70;0.20;;;;;;;14.53;63.79;100361.28;4789465;29;97960;-64
2022/09/10 02:46:08;;;;;;;0.40;0.20;;;;;;;14.50;63.63;100356.44;4815803;29;98097;-71
2022/09/10 02:48:34;;;;;;;1.08;0.30;;;;;;;14.49;64.00;100357.56;4804453;29;98343;-64
2022/09/10 02:51:01;;;;;;;0.70;0.20;;;;;;;14.49;63.90;100358.34;4797384;29;100121;-64
2022/09/10 02:53:29;;;;;;;0.47;0.20;;;;;;;14.48;64.05;100364.84;4808353;29;97954;-64
2022/09/10 02:55:59;;;;;;;0.47;0.15;;;;;;;14.46;63.64;100353.50;4786219;28;98275;-71
2022/09/10 02:58:25;;;;;;;0.40;0.10;;;;;;;14.45;63.80;100353.78;4772151;29;98191;-64
2022/09/10 03:00:52;;;;;;;0.55;0.10;;;;;;;14.46;63.98;100352.69;4780084;29;129675;-71
2022/09/10 03:03:18;;;;;;;0.40;0.10;;;;;;;14.44;63.85;100355.69;4809063;29;105708;-64
2022/09/10 03:05:46;;;;;;;0.60;0.20;;;;;;;14.43;63.79;100359.53;4809979;29;98118;-64
2022/09/10 03:08:12;;;;;;;0.60;0.10;;;;;;;14.40;63.73;100357.41;4809133;29;97929;-65
2022/09/10 03:10:38;;;;;;;0.73;0.20;;;;;;;14.37;63.85;100347.13;4796702;29;98325;-64
2022/09/10 03:13:07;;;;;;;0.82;0.20;;;;;;;14.34;63.70;100352.34;4788352;28;97863;-71
2022/09/10 03:15:33;;;;;;;0.43;0.15;;;;;;;14.30;63.67;100352.13;4805059;29;97839;-64
2022/09/10 03:18:00;;;;;;;0.80;0.25;;;;;;;14.29;63.88;100347.00;4803886;29;98111;-64
2022/09/10 03:20:26;;;;;;;0.63;0.30;;;;;;;14.25;64.01;100341.34;4807562;29;98622;-64
2022/09/10 03:22:52;;;;;;;0.50;0.20;;;;;;;14.22;63.71;100337.31;4799845;28;98375;-64
2022/09/10 03:25:19;;;;;;;1.13;0.30;;;;;;;14.21;64.28;100345.75;4812249;28;97831;-64
2022/09/10 03:27:45;;;;;;;0.90;0.25;;;;;;;14.17;64.08;100340.13;4793235;29;97983;-64
2022/09/10 03:30:12;;;;;;;0.90;0.20;;;;;;;14.15;64.30;100336.09;4772675;29;99861;-64
2022/09/10 03:32:39;;;;;;;0.55;0.20;;;;;;;14.11;63.96;100341.31;4784859;28;97874;-64
2022/09/10 03:35:05;;;;;;;0.95;0.17;;;;;;;14.06;63.81;100335.94;4777596;29;97872;-64
2022/09/10 03:37:31;;;;;;;0.68;0.20;;;;;;;14.04;63.84;100348.19;4803740;28;98291;-64
2022/09/10 03:39:58;;;;;;;0.80;0.20;;;;;;;14.00;64.21;100346.06;4779437;29;98205;-64
2022/09/10 03:42:24;;;;;;;0.88;0.20;;;;;;;13.98;64.05;100348.25;4792835;28;98153;-64
2022/09/10 03:44:51;;;;;;;3.15;0.30;;;;;;;13.93;64.07;100345.63;4804096;29;98361;-64
2022/09/10 03:47:17;;;;;;;0.65;0.22;;;;;;;13.92;64.23;100345.91;4783618;28;98083;-64
2022/09/10 03:49:43;;;;;;;1.92;0.47;;;;;;;13.89;64.27;100351.91;4793356;29;111351;-64
2022/09/10 03:52:11;;;;;;;1.15;0.28;;;;;;;13.86;64.03;100352.50;4796715;28;98147;-65
2022/09/10 03:54:40;;;;;;;3.50;0.40;;;;;;;13.83;63.89;100353.06;4797646;28;98190;-70
2022/09/10 03:57:07;;;;;;;1.42;0.22;;;;;;;13.82;63.88;100354.19;4787799;28;98012;-64
2022/09/10 03:59:34;;;;;;;1.15;0.30;;;;;;;13.80;64.24;100357.19;4802160;29;98117;-64
2022/09/10 04:02:01;;;;;;;0.60;0.20;;;;;;;13.77;64.18;100354.25;4811819;28;99243;-64
2022/09/10 04:04:28;;;;;;;1.38;0.20;;;;;;;13.73;64.05;100348.59;4823784;28;98122;-64
2022/09/10 04:06:54;;;;;;;0.47;0.10;;;;;;;13.70;64.24;100351.88;4806794;29;99557;-64
2022/09/10 04:09:21;;;;;;;0.70;0.20;;;;;;;13.65;64.08;100358.19;4789831;29;97862;-64
2022/09/10 04:11:47;;;;;;;0.50;0.17;;;;;;;13.60;64.01;100352.84;4781675;28;100363;-64
2022/09/10 04:14:14;;;;;;;0.30;0.10;;;;;;;13.58;64.31;100355.00;4801260;29;98130;-64
2022/09/10 04:16:43;;;;;;;1.88;0.30;;;;;;;13.54;64.15;100348.56;4814575;29;97975;-71
2022/09/10 04:19:09;;;;;;;0.82;0.20;;;;;;;13.53;64.02;100354.28;4781718;29;100152;-64
2022/09/10 04:21:36;;;;;;;2.53;0.20;;;;;;;13.53;63.99;100362.41;4820059;28;98945;-64
2022/09/10 04:24:02;;;;;;;0.35;0.20;;;;;;;13.50;64.43;100359.16;4799131;28;97980;-64
2022/09/10 04:26:28;;;;;;;0.30;0.10;;;;;;;13.49;64.35;100371.09;4810455;28;99749;-64
2022/09/10 04:28:55;;;;;;;1.25;0.15;;;;;;;13.47;64.29;100370.56;4794376;28;98451;-64
2022/09/10 04:31:21;;;;;;;0.32;0.13;;;;;;;13.46;63.99;100376.28;4805939;29;97902;-64
2022/09/10 04:33:47;;;;;;;1.15;0.28;;;;;;;13.42;64.03;100369.84;4796818;29;98046;-64
2022/09/10 04:36:19;;;;;;;1.45;0.20;;;;;;;13.34;64.12;100375.88;4812726;28;98363;-72
2022/09/10 04:38:45;;;;;;;1.43;0.27;;;;;;;13.27;64.25;100370.81;4770472;29;98138;-64
2022/09/10 04:41:14;;;;;;;0.63;0.20;;;;;;;13.26;64.26;100382.72;4818702;28;104938;-64
2022/09/10 04:43:44;;;;;;;0.95;0.30;;;;;;;13.25;64.60;100378.41;4823952;28;98280;-65
2022/09/10 04:46:11;;;;;;;0.25;0.10;;;;;;;13.24;64.23;100377.63;4818479;29;98561;-64
2022/09/10 04:48:38;;;;;;;0.73;0.20;;;;;;;13.24;64.19;100380.31;4794083;29;98176;-64
2022/09/10 04:51:05;;;;;;;0.50;0.20;;;;;;;13.24;64.48;100379.50;4793779;29;98280;-64
2022/09/10 04:53:33;;;;;;;0.77;0.20;;;;;;;13.24;64.33;100376.78;4795045;29;98317;-72
2022/09/10 04:55:59;;;;;;;0.57;0.20;;;;;;;13.24;64.12;100374.06;4806767;29;97981;-64
2022/09/10 04:58:25;;;;;;;1.45;0.30;;;;;;;13.22;63.98;100376.25;4810223;28;98187;-64
2022/09/10 05:00:55;;;;;;;1.33;0.30;;;;;;;13.20;63.96;100379.25;4811547;29;99395;-71
2022/09/10 05:03:22;;;;;;;1.73;0.25;;;;;;;13.21;64.41;100371.94;4797928;28;97986;-64
2022/09/10 05:05:51;;;;;;;0.57;0.22;;;;;;;13.21;63.91;100374.66;4783327;29;98431;-71
2022/09/10 05:08:18;;;;;;;1.33;0.32;;;;;;;13.19;64.39;100371.41;4783859;29;98495;-64
2022/09/10 05:10:45;;;;;;;0.63;0.22;;;;;;;13.20;64.33;100379.25;4773706;28;99211;-64
2022/09/10 05:13:11;;;;;;;0.60;0.20;;;;;;;13.22;64.25;100368.13;4783768;29;98036;-64
2022/09/10 05:15:40;;;;;;;1.35;0.20;;;;;;;13.24;64.07;100374.06;4778952;28;98461;-64
2022/09/10 05:18:08;;;;;;;0.45;0.20;;;;;;;13.26;64.26;100370.00;4795429;29;98288;-64
2022/09/10 05:20:37;;;;;;;0.65;0.28;;;;;;;13.29;64.02;100371.34;4780750;29;98274;-64
2022/09/10 05:23:05;;;;;;;0.50;0.20;;;;;;;13.35;64.14;100385.63;4767556;29;98063;-64
2022/09/10 05:25:33;;;;;;;0.75;0.20;;;;;;;13.40;64.02;100375.56;4782743;29;98501;-64
2022/09/10 05:28:08;;;;;;;1.30;0.20;;;;;;;13.43;63.68;100384.97;4771679;29;98904;-64
2022/09/10 05:30:35;;;;;;;0.90;0.20;;;;;;;13.45;63.97;100383.59;4781282;28;97720;-64
2022/09/10 05:33:01;;;;;;;0.60;0.20;;;;;;;13.49;63.85;100378.44;4786240;29;98390;-64
2022/09/10 05:35:28;;;;;;;2.33;0.30;;;;;;;13.71;63.52;100377.88;4762862;29;99034;-64
2022/09/10 05:37:58;;;;;;;0.77;0.20;;;;;;;13.69;63.88;100367.34;4765010;29;99873;-64
2022/09/10 05:40:28;;;;;;;0.73;0.20;;;;;;;13.71;63.74;100375.16;4786675;29;98199;-64
2022/09/10 05:42:54;;;;;;;0.50;0.15;;;;;;;13.74;64.18;100366.47;4777336;28;98530;-64
2022/09/10 05:45:22;;;;;;;1.92;0.30;;;;;;;13.79;64.17;100369.09;4796982;28;100217;-64
2022/09/10 05:47:50;;;;;;;2.08;0.20;;;;;;;13.86;63.89;100369.56;4780554;29;98048;-64
2022/09/10 05:50:16;;;;;;;0.60;0.13;;;;;;;13.93;63.78;100370.00;4763519;29;98011;-64
2022/09/10 05:52:44;;;;;;;0.70;0.20;;;;;;;13.99;63.88;100371.56;4781503;29;98319;-64
2022/09/10 05:55:11;;;;;;;2.83;0.30;;;;;;;14.07;64.17;100374.69;4768220;28;98166;-64
2022/09/10 05:57:39;;;;;;;0.88;0.20;;;;;;;14.14;64.11;100375.94;4769536;29;98740;-64
2022/09/10 06:00:07;;;;;;;1.15;0.20;;;;;;;14.22;63.84;100383.41;4759317;29;98476;-64
2022/09/10 06:02:34;;;;;;;1.85;0.30;;;;;;;14.35;63.79;100383.78;4801189;28;98292;-64
2022/09/10 06:05:10;;;;;;;0.80;0.20;;;;;;;14.47;63.66;100384.94;4815513;28;106578;-64
2022/09/10 06:07:38;;;;;;;0.45;0.10;;;;;;;14.64;63.83;100394.47;4795461;29;100198;-64
2022/09/10 06:10:05;;;;;;;2.20;0.25;;;;;;;14.79;63.76;100391.53;4788542;28;97949;-64
2022/09/10 06:12:33;;;;;;;1.48;0.20;;;;;;;14.94;63.31;100390.47;4789123;29;98171;-64
2022/09/10 06:14:59;;;;;;;0.57;0.10;;;;;;;15.09;63.10;100392.91;4806136;28;100139;-64
2022/09/10 06:17:26;;;;;;;1.45;0.20;;;;;;;15.23;63.36;100390.19;4798993;29;97834;-64
2022/09/10 06:19:52;;;;;;;0.98;0.30;;;;;;;15.36;63.08;100388.59;4797448;29;98134;-64
2022/09/10 06:22:18;;;;;;;1.15;0.30;;;;;;;15.49;63.14;100387.00;4797991;28;98194;-64
2022/09/10 06:24:48;;;;;;;0.60;0.20;;;;;;;15.60;63.01;100385.69;4815169;28;130279;-64
2022/09/10 06:27:14;;;;;;;0.30;0.10;;;;;;;15.73;63.02;100386.84;4812116;28;98609;-71
2022/09/10 06:29:40;;;;;;;0.40;0.10;;;;;;;15.82;62.82;100387.72;4802488;29;98351;-64
2022/09/10 06:32:07;;;;;;;0.98;0.20;;;;;;;15.95;62.82;100389.59;4795550;28;98000;-71
2022/09/10 06:34:34;;;;;;;0.85;0.20;;;;;;;16.21;62.40;100387.13;4798795;28;98009;-65
2022/09/10 06:37:03;;;;;;;0.88;0.17;;;;;;;16.71;61.30;100383.53;4772145;28;98427;-64
2022/09/10 06:39:29;;;;;;;0.20;0.10;;;;;;;16.67;61.54;100386.88;4784065;29;97955;-64
2022/09/10 06:41:55;;;;;;;1.17;0.10;;;;;;;16.68;61.64;100380.31;4774889;29;112689;-70
2022/09/10 06:44:21;;;;;;;0.63;0.10;;;;;;;16.76;61.72;100389.66;4777936;28;99605;-64
2022/09/10 06:46:48;;;;;;;0.35;0.10;;;;;;;16.83;61.70;100383.78;4777844;29;98148;-71
2022/09/10 06:49:15;;;;;;;0.45;0.10;;;;;;;16.89;61.43;100386.06;4778225;29;97995;-65
2022/09/10 06:51:41;;;;;;;0.45;0.10;;;;;;;16.93;61.48;100381.59;4776649;28;98180;-66
2022/09/10 06:54:07;;;;;;;0.88;0.10;;;;;;;17.01;61.21;100376.50;4795829;28;98315;-65
2022/09/10 06:56:34;;;;;;;0.20;0.00;;;;;;;17.05;61.17;100377.50;4786624;29;97891;-71
2022/09/10 06:59:00;;;;;;;0.28;0.00;;;;;;;17.12;61.18;100381.38;4798570;28;98145;-72
2022/09/10 07:01:26;;;;;;;1.02;0.10;;;;;;;17.20;61.26;100379.81;4777046;28;98113;-65
2022/09/10 07:03:58;;;;;;;1.17;0.10;;;;;;;17.28;60.91;100375.53;4780243;28;98440;-64
2022/09/10 07:06:25;;;;;;;0.37;0.00;;;;;;;17.39;60.84;100383.09;4778360;28;98193;-65
2022/09/10 07:08:57;;;;;;;1.17;0.10;;;;;;;17.47;60.64;100372.56;4778730;28;98098;-72
2022/09/10 07:11:24;;;;;;;;;;;;;;;17.65;60.29;100372.31;4777200;29;98249;-71
2022/09/10 07:13:53;;;;;;;0.98;0.00;;;;;;;17.63;60.13;100379.19;4807380;28;97955;-65
2022/09/10 07:16:20;;;;;;;1.13;0.10;;;;;;;17.74;60.26;100385.16;4782307;28;98078;-72
2022/09/10 07:18:54;;;;;;;0.75;0.05;;;;;;;17.85;59.98;100381.03;4785783;28;98398;-65
2022/09/10 07:21:30;;;;;;;0.63;0.10;;;;;;;17.95;59.59;100385.38;4792998;29;98201;-65
2022/09/10 07:24:02;;;;;;;0.35;0.10;;;;;;;18.08;59.44;100385.25;4771168;28;99023;-64
2022/09/10 07:26:30;;;;;;;0.55;0.10;;;;;;;18.21;59.16;100388.94;4783367;28;97814;-65
2022/09/10 07:28:57;;;;;;;0.30;0.10;;;;;;;18.38;58.81;100386.19;4782733;29;100178;-65
2022/09/10 07:31:27;;;;;;;0.20;0.05;;;;;;;18.55;58.60;100387.31;4776440;29;98083;-65
2022/09/10 07:33:56;;;;;;;0.10;0.00;;;;;;;18.73;58.31;100396.31;4807247;28;98264;-65
2022/09/10 07:36:22;;;;;;;0.57;0.08;;;;;;;18.91;57.97;100389.72;4776874;29;98164;-65
2022/09/10 07:38:56;;;;;;;0.38;0.10;;;;;;;19.12;57.76;100384.34;4794364;28;98449;-65
2022/09/10 07:41:26;;;;;;;2.55;0.10;;;;;;;19.35;57.40;100396.63;4798387;28;98433;-65
2022/09/10 07:43:54;;;;;;;0.40;0.00;;;;;;;19.59;56.89;100392.50;4801780;28;97822;-65
2022/09/10 07:46:21;;;;;;;0.35;0.08;;;;;;;19.81;56.67;100392.25;4757688;28;98726;-65
2022/09/10 07:48:58;;;;;;;1.30;0.00;;;;;;;20.12;56.28;100393.81;4786662;28;99602;-65
2022/09/10 07:51:27;;;;;;;0.90;0.10;;;;;;;20.44;55.44;100395.03;4797082;28;98926;-65
2022/09/10 07:53:55;;;;;;;0.75;0.10;;;;;;;20.76;55.03;100389.94;4792683;28;98668;-65
2022/09/10 07:56:24;;;;;;;0.30;0.10;;;;;;;21.12;54.61;100397.44;4799249;28;98592;-65
2022/09/10 07:58:52;;;;;;;1.17;0.10;;;;;;;21.52;53.79;100394.09;4793862;28;99750;-65
2022/09/10 08:01:19;;;;;;;0.55;0.08;;;;;;;22.00;53.09;100404.22;4783646;28;98274;-65
2022/09/10 08:03:45;;;;;;;0.63;0.10;;;;;;;22.46;52.60;100398.53;4778999;29;98154;-66
2022/09/10 08:06:11;;;;;;;0.20;0.00;;;;;;;23.00;51.51;100398.06;4795319;28;115503;-66
2022/09/10 08:08:38;;;;;;;0.30;0.00;;;;;;;23.45;51.08;100405.09;4793737;28;98911;-66
2022/09/10 08:11:10;;;;;;;0.63;0.10;;;;;;;23.97;50.40;100409.47;4788500;28;99062;-66
2022/09/10 08:13:40;;;;;;;0.10;0.00;;;;;;;24.48;49.68;100410.25;4802809;28;98398;-66
2022/09/10 08:16:08;;;;;;;0.30;0.00;;;;;;;24.99;49.05;100406.47;4774530;28;98104;-73
2022/09/10 08:18:35;;;;;;;0.20;0.00;;;;;;;25.51;48.24;100407.78;4772604;29;98301;-66
2022/09/10 08:21:02;;;;;;;1.05;0.10;;;;;;;25.97;47.89;100404.94;4753370;29;98288;-66
2022/09/10 08:23:29;;;;;;;0.30;0.10;;;;;;;26.51;47.19;100409.22;4789481;28;98891;-66
2022/09/10 08:26:03;;;;;;;0.65;0.10;;;;;;;27.30;46.68;100401.75;4769344;29;98372;-73
2022/09/10 08:28:29;;;;;;;0.98;0.10;;;;;;;27.40;45.86;100404.63;4811164;28;98389;-67
2022/09/10 08:31:00;;;;;;;0.40;0.10;;;;;;;26.26;48.34;100403.38;4779829;28;98331;-74
2022/09/10 08:33:30;;;;;;;0.10;0.00;;;;;;;25.67;48.85;100396.59;4809107;28;98159;-66
2022/09/10 08:36:06;;;;;;;0.50;0.00;;;;;;;25.73;48.49;100394.31;4791899;29;98728;-74
2022/09/10 08:38:45;;;;;;;0.40;0.10;;;;;;;25.14;49.51;100391.00;4773486;29;98285;-72
2022/09/10 08:41:37;;;;;;;0.35;0.00;;;;;;;25.09;49.26;100394.03;4784881;29;98275;-66
2022/09/10 08:44:15;;;;;;;1.17;0.10;;;;;;;24.57;49.86;100396.25;4824403;28;98427;-66
2022/09/10 08:46:54;;;;;;;0.10;0.08;;;;;;;26.55;46.99;100389.94;4796229;28;99935;-72
2022/09/10 08:49:50;;;;;;;0.20;0.00;;;;;;;25.65;48.26;100394.19;4798640;28;98059;-66
2022/09/10 08:52:39;;;;;;;0.30;0.00;;;;;;;25.63;48.38;100396.56;4807143;28;98449;-66
2022/09/10 08:55:29;;;;;;;0.40;0.00;;;;;;;25.61;48.51;100393.34;4814287;28;98728;-66
2022/09/10 08:57:59;;;;;;;0.30;0.00;;;;;;;25.36;48.13;100387.44;4810519;28;98443;-66
2022/09/10 09:00:33;;;;;;;0.25;0.00;;;;;;;25.88;46.99;100388.66;4792426;28;98510;-66
2022/09/10 09:03:39;;;;;;;0.70;0.00;;;;;;;26.17;47.16;100386.28;4808404;28;97949;-72
2022/09/10 09:06:26;;;;;;;0.10;0.00;;;;;;;25.89;46.90;100387.47;4789329;28;98256;-66
2022/09/10 09:08:53;;;;;;;1.27;0.10;;;;;;;26.35;45.76;100390.06;4827508;28;99608;-66
2022/09/10 09:11:27;;;;;;;0.75;0.00;;;;;;;25.97;46.45;100382.84;4784854;28;97907;-66
2022/09/10 09:14:14;;;;;;;0.40;0.10;;;;;;;25.81;46.84;100379.47;4793513;28;98204;-66
2022/09/10 09:16:58;;;;;;;0.10;0.00;;;;;;;25.55;47.14;100386.56;4809882;28;98234;-66
2022/09/10 09:19:52;;;;;;;0.68;0.00;;;;;;;25.73;47.23;100384.06;4824989;28;98031;-66
2022/09/10 09:22:33;;;;;;;0.30;0.00;;;;;;;26.96;44.73;100393.53;4825914;28;98006;-67
2022/09/10 09:25:18;;;;;;;0.15;0.00;;;;;;;28.28;43.50;100394.50;4787486;28;98202;-66
2022/09/10 09:27:44;;;;;;;0.98;0.00;;;;;;;28.21;44.30;100397.25;4815109;28;98576;-66
2022/09/10 09:30:39;;;;;;;0.17;0.00;;;;;;;27.22;45.99;100380.75;4804700;28;130356;-66
2022/09/10 09:33:15;;;;;;;1.20;0.00;;;;;;;26.30;46.85;100382.13;4797569;28;98530;-66
2022/09/10 09:36:00;;;;;;;0.20;0.00;;;;;;;25.64;47.45;100375.28;4787356;28;98290;-72
2022/09/10 09:38:40;;;;;;;0.70;0.00;;;;;;;25.15;47.79;100381.56;4771943;28;111028;-66
2022/09/10 09:41:35;;;;;;;0.20;0.00;;;;;;;24.65;48.14;100378.69;4790891;28;98436;-71
2022/09/10 09:44:40;;;;;;;0.43;0.00;;;;;;;24.22;48.43;100383.31;4829916;28;98189;-66
2022/09/10 09:47:08;;;;;;;1.02;0.00;;;;;;;23.98;48.36;100378.84;4773967;28;98338;-65
2022/09/10 09:49:34;;;;;;;0.20;0.00;;;;;;;23.87;48.65;100391.59;4812173;28;98018;-65
2022/09/10 09:52:32;;;;;;;0.10;0.00;;;;;;;23.85;48.36;100379.31;4764825;29;98216;-73
2022/09/10 09:55:22;;;;;;;1.15;0.00;;;;;;;24.52;47.34;100379.97;4788517;28;98020;-73
2022/09/10 09:58:14;;;;;;;0.20;0.00;;;;;;;28.01;42.34;100382.91;4803228;28;98672;-66
2022/09/10 10:00:42;;;;;;;0.63;0.03;;;;;;;29.24;41.50;100393.19;4806537;28;98312;-66
2022/09/10 10:03:24;;;;;;;0.20;0.05;;;;;;;28.74;43.30;100384.81;4816760;28;98196;-66
2022/09/10 10:05:59;;;;;;;0.20;0.00;;;;;;;29.38;41.82;100378.53;4833451;28;98485;-66
2022/09/10 10:08:36;;;;;;;0.22;0.00;;;;;;;31.99;38.58;100386.25;4803608;28;98334;-73
2022/09/10 10:11:03;;;;;;;0.10;0.00;;;;;;;32.74;37.33;100382.56;4794618;28;98303;-67
2022/09/10 10:13:44;;;;;;;0.30;0.00;;;;;;;30.86;40.94;100374.94;4779434;28;99676;-66
2022/09/10 10:16:34;;;;;;;0.45;0.08;;;;;;;33.75;36.34;100378.94;4815949;28;98173;-67
2022/09/10 10:19:01;;;;;;;0.25;0.00;;;;;;;33.58;36.48;100378.03;4796128;28;98346;-66
2022/09/10 10:21:37;;;;;;;1.30;0.00;;;;;;;36.31;33.91;100380.41;4786067;29;98164;-74
2022/09/10 10:24:04;;;;;;;0.30;0.00;;;;;;;36.17;33.16;100377.28;4807619;28;99177;-74
2022/09/10 10:26:34;;;;;;;0.45;0.10;;;;;;;37.55;32.29;100365.66;4798450;28;98933;-67
2022/09/10 10:29:20;;;;;;;0.88;0.00;;;;;;;35.13;35.99;100360.38;4781432;28;98774;-67
2022/09/10 10:31:48;;;;;;;0.10;0.00;;;;;;;33.13;37.40;100351.28;4795333;28;98144;-66
2022/09/10 10:34:46;;;;;;;1.00;0.00;;;;;;;31.48;39.72;100337.84;4806425;28;98459;-66
2022/09/10 10:37:42;;;;;;;0.30;0.00;;;;;;;30.83;39.96;100345.13;4824742;28;99632;-73
2022/09/10 10:40:21;;;;;;;0.17;0.00;;;;;;;31.44;38.66;100343.47;4808230;28;98140;-66
2022/09/10 10:43:13;;;;;;;0.10;0.00;;;;;;;30.78;39.27;100344.38;4768553;28;98223;-66
2022/09/10 10:45:51;;;;;;;0.00;0.00;;;;;;;30.52;39.56;100345.69;4827309;28;98107;-74
2022/09/10 10:48:28;;;;;;;0.80;0.10;;;;;;;34.20;34.28;100349.28;4793277;28;98850;-74
2022/09/10 10:51:05;;;;;;;0.38;0.00;;;;;;;36.12;32.84;100353.38;4787013;28;98165;-67
2022/09/10 10:54:05;;;;;;;0.68;0.10;;;;;;;37.77;31.87;100357.25;4787599;29;98374;-74
2022/09/10 10:57:18;;;;;;;0.20;0.00;;;;;;;35.45;35.07;100342.78;4791520;28;98199;-76
2022/09/10 11:00:23;;;;;;;0.95;0.03;;;;;;;32.78;37.60;100326.69;4781195;29;99079;-67
2022/09/10 11:03:03;;;;;;;0.15;0.00;;;;;;;31.02;38.83;100328.69;4779245;28;98568;-67
2022/09/10 11:05:48;;;;;;;0.08;0.00;;;;;;;31.88;37.63;100321.53;4801464;28;98741;-68
2022/09/10 11:08:26;;;;;;;0.05;0.00;;;;;;;33.38;35.31;100334.09;4787005;28;97975;-67
2022/09/10 11:10:59;;;;;;;0.60;0.05;;;;;;;32.26;36.40;100328.59;4792075;28;98801;-67
2022/09/10 11:13:38;;;;;;;0.25;0.00;;;;;;;33.97;34.43;100321.41;4816491;28;98502;-67
2022/09/10 11:16:08;;;;;;;0.40;0.00;;;;;;;35.50;32.53;100314.25;4819680;28;98286;-68
2022/09/10 11:18:56;;;;;;;0.10;0.00;;;;;;;36.83;32.11;100320.31;4776536;28;98393;-68
2022/09/10 11:21:37;;;;;;;0.70;0.10;;;;;;;37.76;30.75;100317.09;4813458;28;98249;-67
2022/09/10 11:24:17;;;;;;;0.73;0.08;;;;;;;38.25;29.54;100312.88;4808840;28;98493;-67
2022/09/10 11:26:47;;;;;;;0.52;0.10;;;;;;;38.73;29.48;100302.91;4785798;28;98164;-70
2022/09/10 11:29:40;;;;;;;0.55;0.08;;;;;;;39.79;29.25;100290.34;4794704;28;98312;-71
2022/09/10 11:32:17;;;;;;;0.70;0.00;;;;;;;37.74;31.43;100293.53;4789441;28;98090;-74
2022/09/10 11:35:25;;;;;;;0.95;0.00;;;;;;;34.80;34.31;100273.59;4811410;28;98382;-67
2022/09/10 11:38:48;;;;;;;0.15;0.00;;;;;;;37.77;30.65;100276.53;4810750;28;98595;-68
2022/09/10 11:41:26;;;;;;;0.10;0.00;;;;;;;38.77;29.76;100272.59;4827358;28;97999;-67
2022/09/10 11:44:19;;;;;;;0.10;0.00;;;;;;;39.13;29.25;100276.72;4804925;28;98413;-74
2022/09/10 11:47:30;;;;;;;0.45;0.00;;;;;;;39.76;28.86;100272.31;4818102;28;98207;-67
2022/09/10 11:50:05;;;;;;;1.02;0.00;;;;;;;39.65;28.96;100259.94;4807657;28;98713;-73
2022/09/10 11:52:36;;;;;;;0.55;0.08;;;;;;;39.38;28.86;100255.94;4792304;28;98604;-75